sensor_id;sensor_type;location;lat;lon;timestamp;temperature;humidity
22966;DHT22;11649;48.090;9.754;2023-09-30T00:02:00;15.70;99.90
22966;DHT22;11649;48.090;9.754;2023-09-30T00:04:27;15.80;99.90
22966;DHT22;11649;48.090;9.754;2023-09-30T00:06:55;15.80;99.90
22966;DHT22;11649;48.090;9.754;2023-09-30T00:09:21;15.70;99.90
22966;DHT22;11649;48.090;9.754;2023-09-30T00:11:48;15.90;99.90
22966;DHT22;11649;48.090;9.754;2023-09-30T00:14:15;15.80;99.90
22966;DHT22;11649;48.090;9.754;2023-09-30T00:16:44;15.70;99.90
22966;DHT22;11649;48.090;9.754;2023-09-30T00:19:11;15.60;99.90
22966;DHT22;11649;48.090;9.754;2023-09-30T00:21:40;15.60;99.90
22966;DHT22;11649;48.090;9.754;2023-09-30T00:24:07;15.60;99.90
22966;DHT22;11649;48.090;9.754;2023-09-30T00:26:34;15.60;99.90
22966;DHT22;11649;48.090;9.754;2023-09-30T00:29:00;15.60;99.90
22966;DHT22;11649;48.090;9.754;2023-09-30T00:31:32;15.50;99.90
22966;DHT22;11649;48.090;9.754;2023-09-30T00:33:59;15.30;99.90
22966;DHT22;11649;48.090;9.754;2023-09-30T00:36:26;15.30;99.90
22966;DHT22;11649;48.090;9.754;2023-09-30T00:38:53;15.30;99.90
22966;DHT22;11649;48.090;9.754;2023-09-30T00:41:20;15.20;99.90
22966;DHT22;11649;48.090;9.754;2023-09-30T00:43:46;15.10;99.90
22966;DHT22;11649;48.090;9.754;2023-09-30T00:46:32;15.00;99.90
22966;DHT22;11649;48.090;9.754;2023-09-30T00:49:01;15.00;99.90
22966;DHT22;11649;48.090;9.754;2023-09-30T00:51:28;14.90;99.90
22966;DHT22;11649;48.090;9.754;2023-09-30T00:53:58;15.00;99.90
22966;DHT22;11649;48.090;9.754;2023-09-30T00:56:27;15.00;99.90
22966;DHT22;11649;48.090;9.754;2023-09-30T00:58:55;15.10;99.90
22966;DHT22;11649;48.090;9.754;2023-09-30T01:01:22;15.10;99.90
22966;DHT22;11649;48.090;9.754;2023-09-30T01:03:50;15.10;99.90
22966;DHT22;11649;48.090;9.754;2023-09-30T01:06:17;15.10;99.90
22966;DHT22;11649;48.090;9.754;2023-09-30T01:08:45;15.20;99.90
22966;DHT22;11649;48.090;9.754;2023-09-30T01:11:13;15.20;99.90
22966;DHT22;11649;48.090;9.754;2023-09-30T01:13:40;15.20;99.90
22966;DHT22;11649;48.090;9.754;2023-09-30T01:16:10;15.10;99.90
22966;DHT22;11649;48.090;9.754;2023-09-30T01:18:38;14.90;99.90
22966;DHT22;11649;48.090;9.754;2023-09-30T01:21:06;14.90;99.90
22966;DHT22;11649;48.090;9.754;2023-09-30T01:23:34;14.70;99.90
22966;DHT22;11649;48.090;9.754;2023-09-30T01:26:11;14.40;99.90
22966;DHT22;11649;48.090;9.754;2023-09-30T01:28:41;14.30;99.90
22966;DHT22;11649;48.090;9.754;2023-09-30T01:31:08;14.20;99.90
22966;DHT22;11649;48.090;9.754;2023-09-30T01:33:35;14.20;99.90
22966;DHT22;11649;48.090;9.754;2023-09-30T01:36:02;14.30;99.90
22966;DHT22;11649;48.090;9.754;2023-09-30T01:38:29;14.20;99.90
22966;DHT22;11649;48.090;9.754;2023-09-30T01:40:56;14.20;99.90
22966;DHT22;11649;48.090;9.754;2023-09-30T01:43:26;14.50;99.90
22966;DHT22;11649;48.090;9.754;2023-09-30T01:45:53;14.40;99.90
22966;DHT22;11649;48.090;9.754;2023-09-30T01:48:20;14.40;99.90
22966;DHT22;11649;48.090;9.754;2023-09-30T01:50:47;14.40;99.90
22966;DHT22;11649;48.090;9.754;2023-09-30T01:53:14;14.40;99.90
22966;DHT22;11649;48.090;9.754;2023-09-30T01:55:41;14.30;99.90
22966;DHT22;11649;48.090;9.754;2023-09-30T01:58:09;14.20;99.90
22966;DHT22;11649;48.090;9.754;2023-09-30T02:00:38;14.30;99.90
22966;DHT22;11649;48.090;9.754;2023-09-30T02:03:05;14.40;99.90
22966;DHT22;11649;48.090;9.754;2023-09-30T02:05:32;14.60;99.90
22966;DHT22;11649;48.090;9.754;2023-09-30T02:07:59;14.60;99.90
22966;DHT22;11649;48.090;9.754;2023-09-30T02:10:27;14.60;99.90
22966;DHT22;11649;48.090;9.754;2023-09-30T02:12:54;14.60;99.90
22966;DHT22;11649;48.090;9.754;2023-09-30T02:15:21;14.60;99.90
22966;DHT22;11649;48.090;9.754;2023-09-30T02:17:48;14.50;99.90
22966;DHT22;11649;48.090;9.754;2023-09-30T02:20:16;14.50;99.90
22966;DHT22;11649;48.090;9.754;2023-09-30T02:22:46;14.40;99.90
22966;DHT22;11649;48.090;9.754;2023-09-30T02:25:14;14.30;99.90
22966;DHT22;11649;48.090;9.754;2023-09-30T02:27:42;14.20;99.90
22966;DHT22;11649;48.090;9.754;2023-09-30T02:30:10;14.20;99.90
22966;DHT22;11649;48.090;9.754;2023-09-30T02:32:39;14.10;99.90
22966;DHT22;11649;48.090;9.754;2023-09-30T02:35:07;14.20;99.90
22966;DHT22;11649;48.090;9.754;2023-09-30T02:37:34;14.10;99.90
22966;DHT22;11649;48.090;9.754;2023-09-30T02:40:04;14.10;99.90
22966;DHT22;11649;48.090;9.754;2023-09-30T02:42:31;14.10;99.90
22966;DHT22;11649;48.090;9.754;2023-09-30T02:45:02;14.20;99.90
22966;DHT22;11649;48.090;9.754;2023-09-30T02:47:29;14.20;99.90
22966;DHT22;11649;48.090;9.754;2023-09-30T02:49:57;14.10;99.90
22966;DHT22;11649;48.090;9.754;2023-09-30T02:52:24;14.00;99.90
22966;DHT22;11649;48.090;9.754;2023-09-30T02:54:51;13.80;99.90
22966;DHT22;11649;48.090;9.754;2023-09-30T02:57:18;13.80;99.90
22966;DHT22;11649;48.090;9.754;2023-09-30T02:59:46;13.80;99.90
22966;DHT22;11649;48.090;9.754;2023-09-30T03:02:13;13.70;99.90
22966;DHT22;11649;48.090;9.754;2023-09-30T03:04:41;13.60;99.90
22966;DHT22;11649;48.090;9.754;2023-09-30T03:07:09;13.60;99.90
22966;DHT22;11649;48.090;9.754;2023-09-30T03:09:35;13.80;99.90
22966;DHT22;11649;48.090;9.754;2023-09-30T03:12:02;13.70;99.90
22966;DHT22;11649;48.090;9.754;2023-09-30T03:14:31;13.70;99.90
22966;DHT22;11649;48.090;9.754;2023-09-30T03:16:58;13.90;99.90
22966;DHT22;11649;48.090;9.754;2023-09-30T03:19:26;13.90;99.90
22966;DHT22;11649;48.090;9.754;2023-09-30T03:21:52;13.90;99.90
22966;DHT22;11649;48.090;9.754;2023-09-30T03:24:19;13.90;99.90
22966;DHT22;11649;48.090;9.754;2023-09-30T03:26:47;14.00;99.90
22966;DHT22;11649;48.090;9.754;2023-09-30T03:29:14;14.10;99.90
22966;DHT22;11649;48.090;9.754;2023-09-30T03:31:41;14.00;99.90
22966;DHT22;11649;48.090;9.754;2023-09-30T03:34:08;13.80;99.90
22966;DHT22;11649;48.090;9.754;2023-09-30T03:36:35;13.80;99.90
22966;DHT22;11649;48.090;9.754;2023-09-30T03:39:02;13.80;99.90
22966;DHT22;11649;48.090;9.754;2023-09-30T03:41:33;13.70;99.90
22966;DHT22;11649;48.090;9.754;2023-09-30T03:44:03;13.80;99.90
22966;DHT22;11649;48.090;9.754;2023-09-30T03:46:30;13.80;99.90
22966;DHT22;11649;48.090;9.754;2023-09-30T03:48:58;13.90;99.90
22966;DHT22;11649;48.090;9.754;2023-09-30T03:51:26;13.90;99.90
22966;DHT22;11649;48.090;9.754;2023-09-30T03:53:53;13.90;99.90
22966;DHT22;11649;48.090;9.754;2023-09-30T03:56:19;13.70;99.90
22966;DHT22;11649;48.090;9.754;2023-09-30T03:58:49;13.60;99.90
22966;DHT22;11649;48.090;9.754;2023-09-30T04:01:16;13.60;99.90
22966;DHT22;11649;48.090;9.754;2023-09-30T04:03:46;13.50;99.90
22966;DHT22;11649;48.090;9.754;2023-09-30T04:06:13;13.40;99.90
22966;DHT22;11649;48.090;9.754;2023-09-30T04:08:40;13.50;99.90
22966;DHT22;11649;48.090;9.754;2023-09-30T04:11:07;13.60;99.90
22966;DHT22;11649;48.090;9.754;2023-09-30T04:13:34;13.70;99.90
22966;DHT22;11649;48.090;9.754;2023-09-30T04:16:01;13.90;99.90
22966;DHT22;11649;48.090;9.754;2023-09-30T04:18:29;13.80;99.90
22966;DHT22;11649;48.090;9.754;2023-09-30T04:20:57;13.80;99.90
22966;DHT22;11649;48.090;9.754;2023-09-30T04:23:23;13.80;99.90
22966;DHT22;11649;48.090;9.754;2023-09-30T04:25:50;13.80;99.90
22966;DHT22;11649;48.090;9.754;2023-09-30T04:28:17;13.80;99.90
22966;DHT22;11649;48.090;9.754;2023-09-30T04:30:50;13.70;99.90
22966;DHT22;11649;48.090;9.754;2023-09-30T04:33:17;13.70;99.90
22966;DHT22;11649;48.090;9.754;2023-09-30T04:35:44;13.70;99.90
22966;DHT22;11649;48.090;9.754;2023-09-30T04:38:12;13.60;99.90
22966;DHT22;11649;48.090;9.754;2023-09-30T04:40:39;13.40;99.90
22966;DHT22;11649;48.090;9.754;2023-09-30T04:43:06;13.30;99.90
22966;DHT22;11649;48.090;9.754;2023-09-30T04:45:33;13.20;99.90
22966;DHT22;11649;48.090;9.754;2023-09-30T04:48:03;13.20;99.90
22966;DHT22;11649;48.090;9.754;2023-09-30T04:50:31;13.30;99.90
22966;DHT22;11649;48.090;9.754;2023-09-30T04:52:57;13.20;99.90
22966;DHT22;11649;48.090;9.754;2023-09-30T04:55:24;13.10;99.90
22966;DHT22;11649;48.090;9.754;2023-09-30T04:57:51;13.10;99.90
22966;DHT22;11649;48.090;9.754;2023-09-30T05:00:19;13.20;99.90
22966;DHT22;11649;48.090;9.754;2023-09-30T05:02:52;13.00;99.90
22966;DHT22;11649;48.090;9.754;2023-09-30T05:05:19;13.10;99.90
22966;DHT22;11649;48.090;9.754;2023-09-30T05:07:46;13.40;99.90
22966;DHT22;11649;48.090;9.754;2023-09-30T05:10:14;13.10;99.90
22966;DHT22;11649;48.090;9.754;2023-09-30T05:12:43;13.10;99.90
22966;DHT22;11649;48.090;9.754;2023-09-30T05:15:15;13.20;99.90
22966;DHT22;11649;48.090;9.754;2023-09-30T05:17:43;13.10;99.90
22966;DHT22;11649;48.090;9.754;2023-09-30T05:20:14;13.10;99.90
22966;DHT22;11649;48.090;9.754;2023-09-30T05:22:44;13.20;99.90
22966;DHT22;11649;48.090;9.754;2023-09-30T05:25:16;13.20;99.90
22966;DHT22;11649;48.090;9.754;2023-09-30T05:27:44;13.10;99.90
22966;DHT22;11649;48.090;9.754;2023-09-30T05:30:12;13.20;99.90
22966;DHT22;11649;48.090;9.754;2023-09-30T05:32:42;13.20;99.90
22966;DHT22;11649;48.090;9.754;2023-09-30T05:35:09;13.20;99.90
22966;DHT22;11649;48.090;9.754;2023-09-30T05:37:40;13.20;99.90
22966;DHT22;11649;48.090;9.754;2023-09-30T05:40:08;13.30;99.90
22966;DHT22;11649;48.090;9.754;2023-09-30T05:42:44;13.30;99.90
22966;DHT22;11649;48.090;9.754;2023-09-30T05:45:11;13.20;99.90
22966;DHT22;11649;48.090;9.754;2023-09-30T05:47:42;13.30;99.90
22966;DHT22;11649;48.090;9.754;2023-09-30T05:50:11;13.20;99.90
22966;DHT22;11649;48.090;9.754;2023-09-30T05:52:42;13.20;99.90
22966;DHT22;11649;48.090;9.754;2023-09-30T05:55:11;13.20;99.90
22966;DHT22;11649;48.090;9.754;2023-09-30T05:57:38;13.30;99.90
22966;DHT22;11649;48.090;9.754;2023-09-30T06:00:06;13.30;99.90
22966;DHT22;11649;48.090;9.754;2023-09-30T06:02:56;13.30;99.90
22966;DHT22;11649;48.090;9.754;2023-09-30T06:05:23;13.30;99.90
22966;DHT22;11649;48.090;9.754;2023-09-30T06:07:52;13.20;99.90
22966;DHT22;11649;48.090;9.754;2023-09-30T06:10:21;13.10;99.90
22966;DHT22;11649;48.090;9.754;2023-09-30T06:12:49;13.20;99.90
22966;DHT22;11649;48.090;9.754;2023-09-30T06:15:16;13.20;99.90
22966;DHT22;11649;48.090;9.754;2023-09-30T06:17:52;13.30;99.90
22966;DHT22;11649;48.090;9.754;2023-09-30T06:20:22;13.50;99.90
22966;DHT22;11649;48.090;9.754;2023-09-30T06:22:53;13.60;99.90
22966;DHT22;11649;48.090;9.754;2023-09-30T06:25:20;13.80;99.90
22966;DHT22;11649;48.090;9.754;2023-09-30T06:27:50;13.90;99.90
22966;DHT22;11649;48.090;9.754;2023-09-30T06:30:18;13.80;99.90
22966;DHT22;11649;48.090;9.754;2023-09-30T06:32:47;13.90;99.90
22966;DHT22;11649;48.090;9.754;2023-09-30T06:35:14;13.90;99.90
22966;DHT22;11649;48.090;9.754;2023-09-30T06:37:42;14.00;99.90
22966;DHT22;11649;48.090;9.754;2023-09-30T06:40:10;14.00;99.90
22966;DHT22;11649;48.090;9.754;2023-09-30T06:42:39;14.00;99.90
22966;DHT22;11649;48.090;9.754;2023-09-30T06:45:07;14.00;99.90
22966;DHT22;11649;48.090;9.754;2023-09-30T06:47:38;14.10;99.90
22966;DHT22;11649;48.090;9.754;2023-09-30T06:50:10;14.10;99.90
22966;DHT22;11649;48.090;9.754;2023-09-30T06:52:40;14.10;99.90
22966;DHT22;11649;48.090;9.754;2023-09-30T06:55:08;14.20;99.90
22966;DHT22;11649;48.090;9.754;2023-09-30T06:57:37;14.20;99.90
22966;DHT22;11649;48.090;9.754;2023-09-30T07:00:08;14.30;99.90
22966;DHT22;11649;48.090;9.754;2023-09-30T07:02:36;14.50;99.90
22966;DHT22;11649;48.090;9.754;2023-09-30T07:05:09;14.60;99.90
22966;DHT22;11649;48.090;9.754;2023-09-30T07:07:36;14.70;99.90
22966;DHT22;11649;48.090;9.754;2023-09-30T07:10:04;14.70;99.90
22966;DHT22;11649;48.090;9.754;2023-09-30T07:12:32;14.50;99.90
22966;DHT22;11649;48.090;9.754;2023-09-30T07:15:06;14.40;99.90
22966;DHT22;11649;48.090;9.754;2023-09-30T07:17:33;14.60;99.90
22966;DHT22;11649;48.090;9.754;2023-09-30T07:20:01;14.60;99.90
22966;DHT22;11649;48.090;9.754;2023-09-30T07:22:29;14.70;99.90
22966;DHT22;11649;48.090;9.754;2023-09-30T07:24:59;14.70;99.90
22966;DHT22;11649;48.090;9.754;2023-09-30T07:27:26;14.90;99.90
22966;DHT22;11649;48.090;9.754;2023-09-30T07:29:54;14.90;99.90
22966;DHT22;11649;48.090;9.754;2023-09-30T07:32:21;15.10;99.90
22966;DHT22;11649;48.090;9.754;2023-09-30T07:34:51;15.10;99.90
22966;DHT22;11649;48.090;9.754;2023-09-30T07:37:19;15.20;99.90
22966;DHT22;11649;48.090;9.754;2023-09-30T07:39:47;15.30;99.90
22966;DHT22;11649;48.090;9.754;2023-09-30T07:42:14;15.20;99.90
22966;DHT22;11649;48.090;9.754;2023-09-30T07:44:41;15.50;99.90
22966;DHT22;11649;48.090;9.754;2023-09-30T07:47:08;15.50;99.90
22966;DHT22;11649;48.090;9.754;2023-09-30T07:49:38;15.70;99.90
22966;DHT22;11649;48.090;9.754;2023-09-30T07:52:05;15.70;99.90
22966;DHT22;11649;48.090;9.754;2023-09-30T07:54:32;15.70;99.90
22966;DHT22;11649;48.090;9.754;2023-09-30T07:56:59;15.70;99.90
22966;DHT22;11649;48.090;9.754;2023-09-30T07:59:27;15.80;99.90
22966;DHT22;11649;48.090;9.754;2023-09-30T08:01:54;15.90;99.90
22966;DHT22;11649;48.090;9.754;2023-09-30T08:04:21;16.00;99.90
22966;DHT22;11649;48.090;9.754;2023-09-30T08:06:49;16.20;99.90
22966;DHT22;11649;48.090;9.754;2023-09-30T08:09:17;16.20;99.90
22966;DHT22;11649;48.090;9.754;2023-09-30T08:11:45;16.30;99.90
22966;DHT22;11649;48.090;9.754;2023-09-30T08:14:12;16.40;99.90
22966;DHT22;11649;48.090;9.754;2023-09-30T08:16:39;16.40;99.90
22966;DHT22;11649;48.090;9.754;2023-09-30T08:19:07;16.40;99.90
22966;DHT22;11649;48.090;9.754;2023-09-30T08:21:33;16.50;99.90
22966;DHT22;11649;48.090;9.754;2023-09-30T08:24:03;16.50;99.90
22966;DHT22;11649;48.090;9.754;2023-09-30T08:26:34;16.50;99.90
22966;DHT22;11649;48.090;9.754;2023-09-30T08:29:02;16.60;99.90
22966;DHT22;11649;48.090;9.754;2023-09-30T08:31:30;16.50;99.90
22966;DHT22;11649;48.090;9.754;2023-09-30T08:34:03;16.50;99.90
22966;DHT22;11649;48.090;9.754;2023-09-30T08:36:39;16.50;99.90
22966;DHT22;11649;48.090;9.754;2023-09-30T08:39:06;16.50;99.90
22966;DHT22;11649;48.090;9.754;2023-09-30T08:41:34;16.60;99.90
22966;DHT22;11649;48.090;9.754;2023-09-30T08:44:02;16.70;99.90
22966;DHT22;11649;48.090;9.754;2023-09-30T08:46:34;16.50;99.90
22966;DHT22;11649;48.090;9.754;2023-09-30T08:49:02;16.60;99.90
22966;DHT22;11649;48.090;9.754;2023-09-30T08:51:31;16.70;99.90
22966;DHT22;11649;48.090;9.754;2023-09-30T08:53:59;16.70;99.90
22966;DHT22;11649;48.090;9.754;2023-09-30T08:56:39;16.60;99.90
22966;DHT22;11649;48.090;9.754;2023-09-30T08:59:11;16.70;99.90
22966;DHT22;11649;48.090;9.754;2023-09-30T09:01:39;16.70;99.90
22966;DHT22;11649;48.090;9.754;2023-09-30T09:04:07;16.80;99.90
22966;DHT22;11649;48.090;9.754;2023-09-30T09:06:34;17.00;99.90
22966;DHT22;11649;48.090;9.754;2023-09-30T09:09:17;16.90;99.90
22966;DHT22;11649;48.090;9.754;2023-09-30T09:11:45;17.10;99.90
22966;DHT22;11649;48.090;9.754;2023-09-30T09:14:12;17.20;99.90
22966;DHT22;11649;48.090;9.754;2023-09-30T09:16:53;17.20;99.90
22966;DHT22;11649;48.090;9.754;2023-09-30T09:19:20;17.30;99.90
22966;DHT22;11649;48.090;9.754;2023-09-30T09:21:59;17.40;99.90
22966;DHT22;11649;48.090;9.754;2023-09-30T09:24:44;17.40;99.90
22966;DHT22;11649;48.090;9.754;2023-09-30T09:27:16;17.40;99.90
22966;DHT22;11649;48.090;9.754;2023-09-30T09:29:46;17.40;99.90
22966;DHT22;11649;48.090;9.754;2023-09-30T09:32:15;17.40;99.90
22966;DHT22;11649;48.090;9.754;2023-09-30T09:34:44;17.60;99.90
22966;DHT22;11649;48.090;9.754;2023-09-30T09:37:18;17.70;99.90
22966;DHT22;11649;48.090;9.754;2023-09-30T09:39:56;17.80;99.90
22966;DHT22;11649;48.090;9.754;2023-09-30T09:42:29;17.90;99.90
22966;DHT22;11649;48.090;9.754;2023-09-30T09:45:04;17.90;99.90
22966;DHT22;11649;48.090;9.754;2023-09-30T09:47:35;18.10;99.90
22966;DHT22;11649;48.090;9.754;2023-09-30T09:50:03;18.10;99.90
22966;DHT22;11649;48.090;9.754;2023-09-30T09:52:34;18.10;99.90
22966;DHT22;11649;48.090;9.754;2023-09-30T09:55:02;18.20;99.90
22966;DHT22;11649;48.090;9.754;2023-09-30T09:57:31;18.10;99.90
22966;DHT22;11649;48.090;9.754;2023-09-30T09:59:58;18.00;99.90
22966;DHT22;11649;48.090;9.754;2023-09-30T10:02:26;18.00;99.90
22966;DHT22;11649;48.090;9.754;2023-09-30T10:04:55;18.00;99.90
22966;DHT22;11649;48.090;9.754;2023-09-30T10:07:29;18.10;99.90
22966;DHT22;11649;48.090;9.754;2023-09-30T10:10:04;18.10;99.90
22966;DHT22;11649;48.090;9.754;2023-09-30T10:12:38;18.20;99.90
22966;DHT22;11649;48.090;9.754;2023-09-30T10:18:06;18.40;99.90
22966;DHT22;11649;48.090;9.754;2023-09-30T10:20:41;18.50;99.90
22966;DHT22;11649;48.090;9.754;2023-09-30T10:25:51;18.60;99.90
22966;DHT22;11649;48.090;9.754;2023-09-30T10:28:40;18.40;99.90
22966;DHT22;11649;48.090;9.754;2023-09-30T10:33:35;18.60;99.90
22966;DHT22;11649;48.090;9.754;2023-09-30T10:36:05;18.80;99.90
22966;DHT22;11649;48.090;9.754;2023-09-30T10:41:02;18.60;99.90
22966;DHT22;11649;48.090;9.754;2023-09-30T10:43:30;18.60;99.90
22966;DHT22;11649;48.090;9.754;2023-09-30T10:46:00;18.70;99.90
22966;DHT22;11649;48.090;9.754;2023-09-30T10:50:56;18.90;99.90
22966;DHT22;11649;48.090;9.754;2023-09-30T10:53:25;18.90;99.90
22966;DHT22;11649;48.090;9.754;2023-09-30T10:55:57;18.80;99.90
22966;DHT22;11649;48.090;9.754;2023-09-30T10:58:41;18.90;99.90
22966;DHT22;11649;48.090;9.754;2023-09-30T11:01:09;19.00;99.90
22966;DHT22;11649;48.090;9.754;2023-09-30T11:03:37;19.00;99.90
22966;DHT22;11649;48.090;9.754;2023-09-30T11:06:04;18.90;99.90
22966;DHT22;11649;48.090;9.754;2023-09-30T11:08:35;18.80;99.90
22966;DHT22;11649;48.090;9.754;2023-09-30T11:11:03;19.00;99.90
22966;DHT22;11649;48.090;9.754;2023-09-30T11:13:34;19.00;99.90
22966;DHT22;11649;48.090;9.754;2023-09-30T11:16:05;19.10;99.90
22966;DHT22;11649;48.090;9.754;2023-09-30T11:18:32;19.10;99.90
22966;DHT22;11649;48.090;9.754;2023-09-30T11:21:07;19.20;99.90
22966;DHT22;11649;48.090;9.754;2023-09-30T11:23:35;19.20;99.90
22966;DHT22;11649;48.090;9.754;2023-09-30T11:26:02;19.40;99.90
22966;DHT22;11649;48.090;9.754;2023-09-30T11:28:44;19.50;99.90
22966;DHT22;11649;48.090;9.754;2023-09-30T11:31:12;19.50;99.90
22966;DHT22;11649;48.090;9.754;2023-09-30T11:33:52;19.50;99.90
22966;DHT22;11649;48.090;9.754;2023-09-30T11:36:20;19.60;99.90
22966;DHT22;11649;48.090;9.754;2023-09-30T11:38:50;19.60;99.90
22966;DHT22;11649;48.090;9.754;2023-09-30T11:41:17;19.60;99.90
22966;DHT22;11649;48.090;9.754;2023-09-30T11:44:03;19.60;99.90
22966;DHT22;11649;48.090;9.754;2023-09-30T11:46:53;19.60;99.90
22966;DHT22;11649;48.090;9.754;2023-09-30T11:49:31;19.50;99.90
22966;DHT22;11649;48.090;9.754;2023-09-30T11:52:02;19.50;99.90
22966;DHT22;11649;48.090;9.754;2023-09-30T11:54:34;19.50;99.90
22966;DHT22;11649;48.090;9.754;2023-09-30T11:57:01;19.60;99.90
22966;DHT22;11649;48.090;9.754;2023-09-30T11:59:30;20.00;99.90
22966;DHT22;11649;48.090;9.754;2023-09-30T12:02:02;19.90;99.90
22966;DHT22;11649;48.090;9.754;2023-09-30T12:04:42;19.90;99.90
22966;DHT22;11649;48.090;9.754;2023-09-30T12:07:09;20.10;99.60
22966;DHT22;11649;48.090;9.754;2023-09-30T12:09:37;20.30;99.10
22966;DHT22;11649;48.090;9.754;2023-09-30T12:12:05;20.50;97.60
22966;DHT22;11649;48.090;9.754;2023-09-30T12:14:36;20.60;99.60
22966;DHT22;11649;48.090;9.754;2023-09-30T12:17:03;20.70;94.60
22966;DHT22;11649;48.090;9.754;2023-09-30T12:19:30;20.60;95.70
22966;DHT22;11649;48.090;9.754;2023-09-30T12:22:00;20.40;97.40
22966;DHT22;11649;48.090;9.754;2023-09-30T12:24:27;20.40;98.90
22966;DHT22;11649;48.090;9.754;2023-09-30T12:26:54;20.30;97.30
22966;DHT22;11649;48.090;9.754;2023-09-30T12:29:22;20.30;99.10
22966;DHT22;11649;48.090;9.754;2023-09-30T12:31:51;20.40;99.30
22966;DHT22;11649;48.090;9.754;2023-09-30T12:34:21;20.40;99.90
22966;DHT22;11649;48.090;9.754;2023-09-30T12:36:53;20.40;99.00
22966;DHT22;11649;48.090;9.754;2023-09-30T12:39:20;20.30;99.90
22966;DHT22;11649;48.090;9.754;2023-09-30T12:41:52;20.40;99.10
22966;DHT22;11649;48.090;9.754;2023-09-30T12:44:19;20.40;97.90
22966;DHT22;11649;48.090;9.754;2023-09-30T12:46:46;20.30;99.80
22966;DHT22;11649;48.090;9.754;2023-09-30T12:49:13;20.40;99.90
22966;DHT22;11649;48.090;9.754;2023-09-30T12:51:41;20.60;99.10
22966;DHT22;11649;48.090;9.754;2023-09-30T12:54:08;20.70;97.20
22966;DHT22;11649;48.090;9.754;2023-09-30T12:56:36;20.80;93.70
22966;DHT22;11649;48.090;9.754;2023-09-30T12:59:02;20.80;94.50
22966;DHT22;11649;48.090;9.754;2023-09-30T13:01:30;20.60;96.30
22966;DHT22;11649;48.090;9.754;2023-09-30T13:04:05;20.40;98.20
22966;DHT22;11649;48.090;9.754;2023-09-30T13:06:35;20.40;97.70
22966;DHT22;11649;48.090;9.754;2023-09-30T13:09:02;20.60;96.40
22966;DHT22;11649;48.090;9.754;2023-09-30T13:11:32;20.80;94.50
22966;DHT22;11649;48.090;9.754;2023-09-30T13:14:03;20.70;94.80
22966;DHT22;11649;48.090;9.754;2023-09-30T13:16:30;20.50;93.90
22966;DHT22;11649;48.090;9.754;2023-09-30T13:18:57;20.60;95.50
22966;DHT22;11649;48.090;9.754;2023-09-30T13:21:24;20.50;96.30
22966;DHT22;11649;48.090;9.754;2023-09-30T13:23:51;20.60;96.00
22966;DHT22;11649;48.090;9.754;2023-09-30T13:26:19;20.90;90.00
22966;DHT22;11649;48.090;9.754;2023-09-30T13:28:46;21.00;90.20
22966;DHT22;11649;48.090;9.754;2023-09-30T13:31:13;21.10;87.80
22966;DHT22;11649;48.090;9.754;2023-09-30T13:33:40;21.10;88.40
22966;DHT22;11649;48.090;9.754;2023-09-30T13:36:07;21.20;85.90
22966;DHT22;11649;48.090;9.754;2023-09-30T13:38:34;21.30;82.80
22966;DHT22;11649;48.090;9.754;2023-09-30T13:41:01;21.50;83.60
22966;DHT22;11649;48.090;9.754;2023-09-30T13:43:28;21.40;90.60
22966;DHT22;11649;48.090;9.754;2023-09-30T13:45:55;21.60;86.10
22966;DHT22;11649;48.090;9.754;2023-09-30T13:48:23;21.30;89.70
22966;DHT22;11649;48.090;9.754;2023-09-30T13:50:50;21.40;88.20
22966;DHT22;11649;48.090;9.754;2023-09-30T13:53:17;21.20;91.10
22966;DHT22;11649;48.090;9.754;2023-09-30T13:55:44;21.00;85.70
22966;DHT22;11649;48.090;9.754;2023-09-30T13:58:12;20.90;85.40
22966;DHT22;11649;48.090;9.754;2023-09-30T14:00:39;20.80;87.70
22966;DHT22;11649;48.090;9.754;2023-09-30T14:03:06;20.70;83.50
22966;DHT22;11649;48.090;9.754;2023-09-30T14:05:33;20.70;86.80
22966;DHT22;11649;48.090;9.754;2023-09-30T14:08:00;20.60;84.90
22966;DHT22;11649;48.090;9.754;2023-09-30T14:10:28;20.40;85.70
22966;DHT22;11649;48.090;9.754;2023-09-30T14:12:56;20.10;89.30
22966;DHT22;11649;48.090;9.754;2023-09-30T14:15:22;20.30;89.70
22966;DHT22;11649;48.090;9.754;2023-09-30T14:17:49;20.40;89.10
22966;DHT22;11649;48.090;9.754;2023-09-30T14:20:16;20.40;89.80
22966;DHT22;11649;48.090;9.754;2023-09-30T14:22:43;20.60;91.90
22966;DHT22;11649;48.090;9.754;2023-09-30T14:25:10;21.10;90.10
22966;DHT22;11649;48.090;9.754;2023-09-30T14:27:37;21.20;88.00
22966;DHT22;11649;48.090;9.754;2023-09-30T14:30:05;21.10;88.00
22966;DHT22;11649;48.090;9.754;2023-09-30T14:32:34;20.90;90.00
22966;DHT22;11649;48.090;9.754;2023-09-30T14:35:01;20.80;92.40
22966;DHT22;11649;48.090;9.754;2023-09-30T14:37:28;20.70;90.80
22966;DHT22;11649;48.090;9.754;2023-09-30T14:39:56;20.60;91.10
22966;DHT22;11649;48.090;9.754;2023-09-30T14:42:23;20.60;91.90
22966;DHT22;11649;48.090;9.754;2023-09-30T14:44:50;20.30;87.40
22966;DHT22;11649;48.090;9.754;2023-09-30T14:47:17;20.50;87.30
22966;DHT22;11649;48.090;9.754;2023-09-30T14:49:44;20.60;86.30
22966;DHT22;11649;48.090;9.754;2023-09-30T14:52:11;20.90;84.70
22966;DHT22;11649;48.090;9.754;2023-09-30T14:54:38;20.60;82.50
22966;DHT22;11649;48.090;9.754;2023-09-30T14:57:05;20.60;88.50
22966;DHT22;11649;48.090;9.754;2023-09-30T14:59:33;20.50;90.10
22966;DHT22;11649;48.090;9.754;2023-09-30T15:02:01;20.60;88.60
22966;DHT22;11649;48.090;9.754;2023-09-30T15:04:28;20.60;90.20
22966;DHT22;11649;48.090;9.754;2023-09-30T15:06:55;20.50;89.30
22966;DHT22;11649;48.090;9.754;2023-09-30T15:09:22;20.50;89.60
22966;DHT22;11649;48.090;9.754;2023-09-30T15:11:49;20.40;90.70
22966;DHT22;11649;48.090;9.754;2023-09-30T15:14:16;20.40;94.20
22966;DHT22;11649;48.090;9.754;2023-09-30T15:16:43;20.20;88.60
22966;DHT22;11649;48.090;9.754;2023-09-30T15:19:10;20.00;88.30
22966;DHT22;11649;48.090;9.754;2023-09-30T15:21:38;19.90;89.30
22966;DHT22;11649;48.090;9.754;2023-09-30T15:24:05;19.90;90.00
22966;DHT22;11649;48.090;9.754;2023-09-30T15:26:32;19.90;90.60
22966;DHT22;11649;48.090;9.754;2023-09-30T15:28:59;19.70;91.00
22966;DHT22;11649;48.090;9.754;2023-09-30T15:31:28;19.60;91.10
22966;DHT22;11649;48.090;9.754;2023-09-30T15:33:59;19.60;91.80
22966;DHT22;11649;48.090;9.754;2023-09-30T15:36:57;19.60;94.40
22966;DHT22;11649;48.090;9.754;2023-09-30T15:39:25;19.70;94.70
22966;DHT22;11649;48.090;9.754;2023-09-30T15:41:55;19.80;94.30
22966;DHT22;11649;48.090;9.754;2023-09-30T16:30:16;18.90;99.90
22966;DHT22;11649;48.090;9.754;2023-09-30T16:32:43;18.80;99.90
22966;DHT22;11649;48.090;9.754;2023-09-30T16:35:10;18.70;99.90
22966;DHT22;11649;48.090;9.754;2023-09-30T16:37:38;18.70;99.90
22966;DHT22;11649;48.090;9.754;2023-09-30T16:40:06;18.60;99.90